Love Boat — OT3861 — position and weather

sailwx.info

Track history (hours):
 
Tides and Currents Weather Stations Pressure Air Temp Water Temp Dewpoint Dewpoint Depression Visibility Wind Speed Wind Dir Waves Ship Positions

Love Boat

Last reported at 2015-May-04 04:33 UTC. Time now 2015-May-04 04:59 UTC.
Position N 51°34' E 007°13'.

Length 110 m.

Type: Ship. MMSI: 205386190.

Date/timePositionNaut miles runAvg speedWind from/ knotsBaromVisibWave heightAir tempDewpointWater temp
2015-May-04 04:33N 51°34' E 007°13'0 0.0
2015-May-04 03:33N 51°34' E 007°13'0 0.0
2015-May-04 02:30N 51°34' E 007°13'0 0.0
2015-May-04 01:32N 51°34' E 007°13'0 0.0
2015-May-04 00:33N 51°34' E 007°13'0 0.0
2015-May-03 23:32N 51°34' E 007°13'0 0.0
2015-May-03 22:33N 51°34' E 007°13'0 0.0
2015-May-03 21:31N 51°34' E 007°13'0 0.0
2015-May-03 20:31N 51°34' E 007°13'0 0.0
2015-May-03 19:33N 51°34' E 007°13'0 0.0
2015-May-03 18:28N 51°34' E 007°13'0 0.0
2015-May-03 17:33N 51°34' E 007°13'0 0.0
2015-May-03 16:32N 51°34' E 007°13'0 0.0
2015-May-03 15:33N 51°34' E 007°13'0 0.0
2015-May-03 14:32N 51°34' E 007°13'0 0.0
2015-May-03 13:31N 51°34' E 007°13'0 0.0
2015-May-03 12:33N 51°34' E 007°13'0 0.0
2015-May-03 11:32N 51°34' E 007°13'0 0.0
2015-May-03 10:33N 51°34' E 007°13'0 0.0
2015-May-03 09:33N 51°34' E 007°13'0 0.0
2015-May-03 08:32N 51°34' E 007°13'0 0.0
2015-May-03 07:32N 51°34' E 007°13'0 0.0
2015-May-03 06:33N 51°34' E 007°13'0 0.0
2015-May-03 05:33N 51°34' E 007°13'0 0.0
2015-May-03 04:33N 51°34' E 007°13'0 0.0
2015-May-03 03:33N 51°34' E 007°13'0 0.0
2015-May-03 02:33N 51°34' E 007°13'0 0.0
2015-May-03 01:33N 51°34' E 007°13'0 0.0
2015-May-03 00:32N 51°34' E 007°13'0 0.0
2015-May-02 23:33N 51°34' E 007°13'0 0.0
2015-May-02 22:33N 51°34' E 007°13'0 0.0
2015-May-02 21:33N 51°34' E 007°13'0 0.0
2015-May-02 20:33N 51°34' E 007°13'0 0.0
2015-May-02 19:32N 51°34' E 007°13'0 0.0
2015-May-02 18:23N 51°34' E 007°13'0 0.0
2015-May-02 15:18N 51°34' E 007°13'0 0.0
2015-May-02 14:24N 51°34' E 007°13'0 0.0
2015-May-02 13:32N 51°34' E 007°13'0 0.0
2015-May-02 12:32N 51°34' E 007°13'0 0.4
2015-May-02 11:32N 51°33' E 007°12'2 1.6
2015-May-02 10:20N 51°33' E 007°09'23 1.2
2015-May-01 15:24N 51°15' E 006°45'4 5.0
2015-May-01 14:34N 51°11' E 006°45'19 6.2
2015-May-01 11:31N 50°54' E 006°59'5 5.1
2015-May-01 10:27N 50°49' E 007°02'  
2015-Apr-26 03:24N 50°50' E 006°59'4 0.5
2015-Apr-25 20:18N 50°54' E 007°02'4 4.6
2015-Apr-25 19:31N 50°56' E 006°58'13 4.3
2015-Apr-25 16:33N 51°08' E 006°51'3 2.7
2015-Apr-25 15:33N 51°10' E 006°48'4 4.5
2015-Apr-25 14:33N 51°13' E 006°43'2 2.2
2015-Apr-25 13:33N 51°16' E 006°43'17 4.0
2015-Apr-25 09:14N 51°33' E 006°41'21 4.5
2015-Apr-25 04:28N 51°49' E 006°17'23 3.3
2015-Apr-24 21:27N 51°54' E 005°41'11 5.7
2015-Apr-24 19:32N 51°50' E 005°24'5 4.6
2015-Apr-24 18:32N 51°49' E 005°17'12 6.2
2015-Apr-24 16:31N 51°50' E 004°57'7 7.1
2015-Apr-24 15:33N 51°48' E 004°46'8 7.8
2015-Apr-24 14:33N 51°42' E 004°37'1 1.2
2015-Apr-24 13:30N 51°41' E 004°36'0 0.0
2015-Apr-24 12:31N 51°41' E 004°36'0 0.0
2015-Apr-24 11:33N 51°41' E 004°36'0 0.0
2015-Apr-24 10:32N 51°41' E 004°36'0 0.0
2015-Apr-24 09:33N 51°41' E 004°36'0 0.0
2015-Apr-24 08:32N 51°41' E 004°36'0 0.0
2015-Apr-24 07:31N 51°41' E 004°36'0 0.0
2015-Apr-24 06:33N 51°41' E 004°36'  
Track history (hours):
 
Tides and Currents Weather Stations Pressure Air Temp Water Temp Dewpoint Dewpoint Depression Visibility Wind Speed Wind Dir Waves Ship Positions

Love Boat

Last reported at 2015-May-04 04:33 UTC. Time now 2015-May-04 04:59 UTC.
Position N 51°34' E 007°13'.

Length 110 m.

Type: Ship. MMSI: 205386190.

Date/timePositionNaut miles runAvg speedWind from/ knotsBaromVisibWave heightAir tempDewpointWater temp
2015-May-04 04:33N 51°34' E 007°13'0 0.0
2015-May-04 03:33N 51°34' E 007°13'0 0.0
2015-May-04 02:30N 51°34' E 007°13'0 0.0
2015-May-04 01:32N 51°34' E 007°13'0 0.0
2015-May-04 00:33N 51°34' E 007°13'0 0.0
2015-May-03 23:32N 51°34' E 007°13'0 0.0
2015-May-03 22:33N 51°34' E 007°13'0 0.0
2015-May-03 21:31N 51°34' E 007°13'0 0.0
2015-May-03 20:31N 51°34' E 007°13'0 0.0
2015-May-03 19:33N 51°34' E 007°13'0 0.0
2015-May-03 18:28N 51°34' E 007°13'0 0.0
2015-May-03 17:33N 51°34' E 007°13'0 0.0
2015-May-03 16:32N 51°34' E 007°13'0 0.0
2015-May-03 15:33N 51°34' E 007°13'0 0.0
2015-May-03 14:32N 51°34' E 007°13'0 0.0
2015-May-03 13:31N 51°34' E 007°13'0 0.0
2015-May-03 12:33N 51°34' E 007°13'0 0.0
2015-May-03 11:32N 51°34' E 007°13'0 0.0
2015-May-03 10:33N 51°34' E 007°13'0 0.0
2015-May-03 09:33N 51°34' E 007°13'0 0.0
2015-May-03 08:32N 51°34' E 007°13'0 0.0
2015-May-03 07:32N 51°34' E 007°13'0 0.0
2015-May-03 06:33N 51°34' E 007°13'0 0.0
2015-May-03 05:33N 51°34' E 007°13'0 0.0
2015-May-03 04:33N 51°34' E 007°13'0 0.0
2015-May-03 03:33N 51°34' E 007°13'0 0.0
2015-May-03 02:33N 51°34' E 007°13'0 0.0
2015-May-03 01:33N 51°34' E 007°13'0 0.0
2015-May-03 00:32N 51°34' E 007°13'0 0.0
2015-May-02 23:33N 51°34' E 007°13'0 0.0
2015-May-02 22:33N 51°34' E 007°13'0 0.0
2015-May-02 21:33N 51°34' E 007°13'0 0.0
2015-May-02 20:33N 51°34' E 007°13'0 0.0
2015-May-02 19:32N 51°34' E 007°13'0 0.0
2015-May-02 18:23N 51°34' E 007°13'0 0.0
2015-May-02 15:18N 51°34' E 007°13'0 0.0
2015-May-02 14:24N 51°34' E 007°13'0 0.0
2015-May-02 13:32N 51°34' E 007°13'0 0.0
2015-May-02 12:32N 51°34' E 007°13'0 0.4
2015-May-02 11:32N 51°33' E 007°12'2 1.6
2015-May-02 10:20N 51°33' E 007°09'23 1.2
2015-May-01 15:24N 51°15' E 006°45'4 5.0
2015-May-01 14:34N 51°11' E 006°45'19 6.2
2015-May-01 11:31N 50°54' E 006°59'5 5.1
2015-May-01 10:27N 50°49' E 007°02'  
2015-Apr-26 03:24N 50°50' E 006°59'4 0.5
2015-Apr-25 20:18N 50°54' E 007°02'4 4.6
2015-Apr-25 19:31N 50°56' E 006°58'13 4.3
2015-Apr-25 16:33N 51°08' E 006°51'3 2.7
2015-Apr-25 15:33N 51°10' E 006°48'4 4.5
2015-Apr-25 14:33N 51°13' E 006°43'2 2.2
2015-Apr-25 13:33N 51°16' E 006°43'17 4.0
2015-Apr-25 09:14N 51°33' E 006°41'21 4.5
2015-Apr-25 04:28N 51°49' E 006°17'23 3.3
2015-Apr-24 21:27N 51°54' E 005°41'11 5.7
2015-Apr-24 19:32N 51°50' E 005°24'5 4.6
2015-Apr-24 18:32N 51°49' E 005°17'12 6.2
2015-Apr-24 16:31N 51°50' E 004°57'7 7.1
2015-Apr-24 15:33N 51°48' E 004°46'8 7.8
2015-Apr-24 14:33N 51°42' E 004°37'1 1.2
2015-Apr-24 13:30N 51°41' E 004°36'0 0.0
2015-Apr-24 12:31N 51°41' E 004°36'0 0.0
2015-Apr-24 11:33N 51°41' E 004°36'0 0.0
2015-Apr-24 10:32N 51°41' E 004°36'0 0.0
2015-Apr-24 09:33N 51°41' E 004°36'0 0.0
2015-Apr-24 08:32N 51°41' E 004°36'0 0.0
2015-Apr-24 07:31N 51°41' E 004°36'0 0.0
2015-Apr-24 06:33N 51°41' E 004°36'  

Dump ship's entire track history